createdAt,value
2022-09-12T08:35:12.775Z,56.80
2022-09-12T08:37:40.555Z,56.94
2022-09-12T08:40:09.612Z,56.66
2022-09-12T08:42:41.927Z,56.76
2022-09-12T08:45:10.822Z,56.77
2022-09-12T08:47:38.872Z,56.92
2022-09-12T08:50:15.349Z,56.98
2022-09-12T08:52:44.924Z,57.13
2022-09-12T08:55:18.181Z,56.88
2022-09-12T08:57:45.679Z,56.68
2022-09-12T09:00:14.210Z,56.93
2022-09-12T09:02:46.966Z,56.93
2022-09-12T09:05:20.290Z,56.98
2022-09-12T09:07:54.359Z,56.92
2022-09-12T09:10:23.469Z,56.89
2022-09-12T09:12:52.812Z,57.07
2022-09-12T09:15:34.364Z,56.88
2022-09-12T09:18:04.166Z,57.02
2022-09-12T09:20:33.449Z,56.76
2022-09-12T09:23:02.461Z,56.71
2022-09-12T09:25:35.825Z,56.83
2022-09-12T09:28:03.883Z,56.73
2022-09-12T09:30:31.351Z,56.71
2022-09-12T09:32:59.376Z,56.84
2022-09-12T09:35:30.433Z,56.74
2022-09-12T09:38:03.477Z,56.72
2022-09-12T09:40:34.769Z,56.58
2022-09-12T09:43:03.835Z,56.49
2022-09-12T09:45:31.502Z,56.66
2022-09-12T09:47:59.526Z,56.70
2022-09-12T09:50:27.493Z,56.65
2022-09-12T09:53:14.704Z,56.48
2022-09-12T09:55:42.786Z,56.32
2022-09-12T09:58:10.419Z,56.60
2022-09-12T10:00:38.395Z,56.58
2022-09-12T10:03:12.604Z,56.63
2022-09-12T10:05:45.679Z,56.55
2022-09-12T10:08:19.418Z,56.57
2022-09-12T10:10:54.084Z,56.43
2022-09-12T10:13:24.398Z,56.41
2022-09-12T10:15:59.249Z,56.60
2022-09-12T10:18:34.017Z,56.55
2022-09-12T10:21:03.532Z,56.56
2022-09-12T10:23:33.751Z,56.63
2022-09-12T10:26:01.800Z,56.53
2022-09-12T10:28:31.755Z,56.57
2022-09-12T10:31:02.888Z,56.37
2022-09-12T10:33:31.645Z,56.43
2022-09-12T10:35:59.188Z,56.56
2022-09-12T10:38:27.431Z,56.50
2022-09-12T10:41:00.374Z,56.57
2022-09-12T10:43:28.713Z,56.27
2022-09-12T10:45:58.045Z,56.61
2022-09-12T10:48:26.993Z,56.34
2022-09-12T10:50:54.445Z,56.66
2022-09-12T10:53:23.375Z,56.37
2022-09-12T10:55:59.073Z,56.76
2022-09-12T10:58:32.328Z,56.43
2022-09-12T11:01:01.685Z,56.62
2022-09-12T11:03:33.802Z,56.54
2022-09-12T11:06:01.507Z,56.58
2022-09-12T11:08:38.588Z,56.77
2022-09-12T11:11:07.710Z,56.77
2022-09-12T11:13:43.659Z,56.45
2022-09-12T11:16:15.252Z,56.59
2022-09-12T11:18:50.189Z,56.72
2022-09-12T11:21:20.780Z,56.66
2022-09-12T11:23:57.868Z,56.85
2022-09-12T11:26:27.828Z,56.53
2022-09-12T11:28:58.759Z,56.56
2022-09-12T11:31:34.248Z,56.63
2022-09-12T11:34:01.975Z,56.83
2022-09-12T11:36:31.437Z,56.72
2022-09-12T11:39:09.076Z,56.52
2022-09-12T11:41:37.159Z,56.60
2022-09-12T11:44:09.795Z,56.75
2022-09-12T11:46:38.059Z,56.50
2022-09-12T11:49:06.933Z,56.62
2022-09-12T11:51:35.184Z,56.41
2022-09-12T11:54:08.570Z,56.36
2022-09-12T11:56:37.003Z,56.42
2022-09-12T11:59:10.897Z,56.28
2022-09-12T12:01:46.362Z,56.50
2022-09-12T12:04:16.963Z,56.41
2022-09-12T12:06:48.720Z,56.51
2022-09-12T12:09:18.027Z,56.39
2022-09-12T12:11:46.929Z,56.39
2022-09-12T12:14:19.511Z,56.35
2022-09-12T12:16:47.446Z,56.31
2022-09-12T12:19:26.047Z,56.52
2022-09-12T12:21:54.066Z,56.13
2022-09-12T12:24:22.767Z,56.24
2022-09-12T12:27:00.648Z,56.32
2022-09-12T12:29:43.867Z,56.33
2022-09-12T12:32:23.288Z,56.28
2022-09-12T12:34:51.866Z,56.36
2022-09-12T12:37:40.215Z,56.34
2022-09-12T12:40:09.706Z,56.39
2022-09-12T12:43:06.718Z,56.01
2022-09-12T12:45:53.295Z,56.12
2022-09-12T12:48:23.314Z,56.16
2022-09-12T12:50:51.184Z,56.24
2022-09-12T12:53:20.345Z,56.16
2022-09-12T12:55:49.209Z,55.93
2022-09-12T12:58:28.088Z,55.91
2022-09-12T13:01:05.587Z,55.71
2022-09-12T13:03:37.362Z,55.96
2022-09-12T13:06:07.403Z,56.03
2022-09-12T13:08:36.140Z,55.74
2022-09-12T13:11:05.274Z,55.77
2022-09-12T13:13:34.440Z,55.81
2022-09-12T13:16:03.470Z,55.78
2022-09-12T13:18:31.577Z,55.89
2022-09-12T13:21:05.185Z,55.83
2022-09-12T13:23:35.388Z,55.80
2022-09-12T13:26:03.754Z,55.72
2022-09-12T13:28:32.398Z,55.81
2022-09-12T13:31:01.969Z,55.75
2022-09-12T13:33:37.028Z,55.52
2022-09-12T13:36:23.975Z,55.56
2022-09-12T13:38:55.508Z,55.66
2022-09-12T13:41:26.998Z,55.38
2022-09-12T13:43:57.612Z,55.65
2022-09-12T13:46:30.591Z,55.54
2022-09-12T13:48:59.149Z,55.57
2022-09-12T13:51:29.319Z,55.43
2022-09-12T13:54:00.721Z,55.55
2022-09-12T13:56:29.167Z,55.72
2022-09-12T13:58:57.973Z,55.30
2022-09-12T14:01:26.681Z,55.45
2022-09-12T14:04:12.625Z,55.48
2022-09-12T14:06:45.464Z,55.02
2022-09-12T14:09:16.494Z,54.93
2022-09-12T14:11:44.977Z,55.05
2022-09-12T14:14:20.577Z,55.26
2022-09-12T14:16:49.652Z,55.43
2022-09-12T14:19:19.539Z,55.41
2022-09-12T14:21:48.047Z,54.81
2022-09-12T14:24:18.073Z,54.96
2022-09-12T14:26:46.685Z,55.02
2022-09-12T14:29:15.506Z,55.27
2022-09-12T14:31:43.908Z,55.06
2022-09-12T14:34:15.909Z,55.12
2022-09-12T14:36:45.282Z,54.84
2022-09-12T14:39:23.102Z,54.19
2022-09-12T14:41:55.087Z,54.21
2022-09-12T14:44:24.561Z,54.42
2022-09-12T14:46:54.980Z,54.38
2022-09-12T14:49:25.031Z,54.45
2022-09-12T14:51:56.758Z,54.62
2022-09-12T14:54:42.955Z,54.46
2022-09-12T14:57:32.298Z,54.42
2022-09-12T15:00:22.440Z,54.66
2022-09-12T15:02:50.629Z,54.66
2022-09-12T15:05:19.782Z,54.37
2022-09-12T15:07:53.809Z,54.01
2022-09-12T15:10:25.435Z,54.27
2022-09-12T15:13:05.382Z,54.28
2022-09-12T15:15:33.798Z,54.55
2022-09-12T15:18:05.880Z,54.18
2022-09-12T15:20:34.516Z,54.44
2022-09-12T15:23:02.523Z,54.28
2022-09-12T15:25:32.214Z,54.62
2022-09-12T15:28:02.476Z,54.33
2022-09-12T15:30:31.641Z,54.40
2022-09-12T15:33:00.738Z,54.48
2022-09-12T15:35:32.864Z,53.45
2022-09-12T15:38:01.808Z,53.67
2022-09-12T15:40:36.364Z,53.94
2022-09-12T15:43:06.376Z,54.02
2022-09-12T15:45:36.184Z,53.87
2022-09-12T15:48:10.900Z,53.97
2022-09-12T15:50:40.223Z,54.13
2022-09-12T15:53:08.056Z,53.97
2022-09-12T15:55:37.542Z,54.14
2022-09-12T15:58:07.390Z,54.15
2022-09-12T16:00:35.671Z,54.20
2022-09-12T16:03:03.695Z,54.11
2022-09-12T16:05:31.458Z,54.70
2022-09-12T16:07:58.981Z,54.80
2022-09-12T16:10:27.652Z,54.53
2022-09-12T16:12:56.790Z,54.75
2022-09-12T16:15:24.961Z,54.76
2022-09-12T16:17:52.574Z,54.48
2022-09-12T16:20:20.664Z,54.79
2022-09-12T16:22:48.349Z,54.90
2022-09-12T16:25:15.922Z,54.81
2022-09-12T16:27:43.957Z,54.88
2022-09-12T16:30:14.513Z,54.44
2022-09-12T16:32:42.022Z,54.62
2022-09-12T16:35:09.938Z,54.80
2022-09-12T16:37:38.103Z,54.55
2022-09-12T16:40:06.671Z,54.76
2022-09-12T16:42:38.064Z,54.56
2022-09-12T16:45:11.372Z,54.53
2022-09-12T16:47:40.505Z,54.71
2022-09-12T16:50:08.660Z,54.96
2022-09-12T16:52:36.994Z,54.76
2022-09-12T16:55:04.846Z,54.67
2022-09-12T16:57:33.351Z,54.76
2022-09-12T17:00:02.439Z,55.08
2022-09-12T17:02:30.128Z,55.19
2022-09-12T17:04:59.060Z,55.04
2022-09-12T17:07:26.564Z,55.01
2022-09-12T17:09:54.033Z,54.99
2022-09-12T17:12:21.542Z,55.33
2022-09-12T17:14:49.301Z,55.17
2022-09-12T17:17:17.147Z,55.25
2022-09-12T17:19:45.979Z,55.19
2022-09-12T17:22:15.119Z,55.03
2022-09-12T17:24:42.919Z,55.00
2022-09-12T17:27:10.450Z,54.95
2022-09-12T17:29:38.663Z,55.12
2022-09-12T17:32:06.191Z,55.20
2022-09-12T17:34:33.849Z,55.02
2022-09-12T17:37:01.949Z,55.15
2022-09-12T17:39:32.499Z,55.09
2022-09-12T17:42:00.613Z,55.13
2022-09-12T17:44:29.739Z,55.13
2022-09-12T17:46:57.351Z,55.18
2022-09-12T17:49:25.495Z,55.15
2022-09-12T17:51:53.087Z,55.05
2022-09-12T17:54:21.254Z,55.15
2022-09-12T17:56:51.585Z,55.15
2022-09-12T17:59:19.625Z,55.25
2022-09-12T18:02:04.560Z,55.09
2022-09-12T18:04:32.495Z,55.08
2022-09-12T18:07:00.603Z,55.24
2022-09-12T18:09:28.331Z,55.05
2022-09-12T18:11:57.657Z,54.94
2022-09-12T18:18:05.824Z,55.12
2022-09-12T18:20:33.815Z,55.08
2022-09-12T18:23:01.775Z,54.87
2022-09-12T18:25:29.277Z,54.98
2022-09-12T18:27:58.152Z,55.03
2022-09-12T18:30:25.805Z,55.09
2022-09-12T18:32:53.389Z,54.99
2022-09-12T18:35:21.033Z,55.04
2022-09-12T18:38:39.306Z,54.79
2022-09-12T18:41:07.823Z,54.62
2022-09-12T18:43:37.513Z,54.61
2022-09-12T18:46:05.466Z,54.68
2022-09-12T18:48:33.365Z,54.63
2022-09-12T18:51:06.028Z,54.64
2022-09-12T18:53:34.062Z,54.63
2022-09-12T18:56:03.180Z,54.56
2022-09-12T18:58:30.776Z,54.61
2022-09-12T19:00:59.931Z,54.75
2022-09-12T19:03:27.764Z,54.59
2022-09-12T19:05:55.319Z,54.62
2022-09-12T19:08:22.894Z,54.85
2022-09-12T19:10:56.824Z,54.80
2022-09-12T19:13:24.482Z,54.90
2022-09-12T19:15:52.163Z,54.76
2022-09-12T19:18:23.584Z,54.73
2022-09-12T19:20:51.649Z,54.87
2022-09-12T19:23:19.316Z,55.03
2022-09-12T19:25:49.570Z,54.87
2022-09-12T19:28:17.099Z,54.73
2022-09-12T19:30:47.303Z,54.65
2022-09-12T19:33:15.097Z,54.71
2022-09-12T19:35:43.997Z,54.77
2022-09-12T19:38:12.371Z,54.93
2022-09-12T19:40:39.965Z,54.78
2022-09-12T19:43:07.453Z,54.80
2022-09-12T19:45:35.026Z,54.69
2022-09-12T19:48:02.711Z,54.94
2022-09-12T19:50:32.160Z,54.76
2022-09-12T19:53:01.267Z,54.65
2022-09-12T19:55:28.812Z,54.97
2022-09-12T19:57:56.419Z,54.80
2022-09-12T20:00:23.929Z,54.78
2022-09-12T20:02:52.079Z,54.78
2022-09-12T20:05:19.765Z,54.91
2022-09-12T20:07:47.597Z,54.89
2022-09-12T20:10:16.693Z,54.99
2022-09-12T20:12:44.698Z,54.94
2022-09-12T20:15:12.892Z,54.88
2022-09-12T20:17:40.962Z,54.71
2022-09-12T20:20:08.879Z,54.85
2022-09-12T20:22:39.870Z,54.89
2022-09-12T20:25:08.371Z,54.92
2022-09-12T20:27:37.704Z,54.92
2022-09-12T20:30:05.945Z,55.12
2022-09-12T20:32:33.767Z,54.94
2022-09-12T20:35:01.332Z,55.10
2022-09-12T20:37:30.437Z,54.91
2022-09-12T20:39:58.060Z,55.00
2022-09-12T20:42:25.679Z,55.09
2022-09-12T20:44:56.027Z,54.99
2022-09-12T20:47:23.985Z,55.09
2022-09-12T20:49:51.602Z,55.08
2022-09-12T20:52:19.493Z,55.09
2022-09-12T20:54:47.387Z,54.84
2022-09-12T20:57:15.007Z,55.04
2022-09-12T20:59:42.718Z,54.92
2022-09-12T21:02:12.994Z,55.11
2022-09-12T21:04:40.808Z,54.88
2022-09-12T21:07:08.416Z,55.04
2022-09-12T21:09:37.343Z,54.95
2022-09-12T21:12:05.329Z,55.32
2022-09-12T21:14:32.920Z,55.60
2022-09-12T21:17:00.519Z,55.47
2022-09-12T21:19:29.486Z,55.72
2022-09-12T21:21:57.081Z,55.70
2022-09-12T21:24:24.997Z,55.75
2022-09-12T21:26:52.555Z,55.86
2022-09-12T21:29:20.720Z,56.11
2022-09-12T21:31:48.351Z,56.20
2022-09-12T21:34:16.557Z,56.06
2022-09-12T21:36:46.340Z,56.06
2022-09-12T21:39:14.520Z,56.31
2022-09-12T21:41:42.116Z,56.20
2022-09-12T21:44:09.849Z,56.20
2022-09-12T21:46:37.502Z,56.30
2022-09-12T21:49:06.553Z,56.21
2022-09-12T21:51:34.588Z,56.42
2022-09-12T21:54:04.621Z,56.23
2022-09-12T21:56:32.377Z,56.43
2022-09-12T21:59:00.313Z,56.50
2022-09-12T22:01:28.727Z,56.57
2022-09-12T22:03:56.588Z,56.35
2022-09-12T22:06:24.104Z,56.43
2022-09-12T22:08:51.933Z,56.64
2022-09-12T22:11:21.312Z,56.55
2022-09-12T22:13:49.128Z,56.68
2022-09-12T22:16:17.764Z,56.80
2022-09-12T22:18:46.519Z,56.60
2022-09-12T22:21:15.236Z,56.90
2022-09-12T22:24:00.420Z,56.99
2022-09-12T22:26:30.475Z,56.82
2022-09-12T22:28:58.104Z,56.95
2022-09-12T22:31:27.002Z,56.99
2022-09-12T22:33:57.002Z,56.97
2022-09-12T22:36:28.116Z,56.96
2022-09-12T22:38:58.034Z,57.01
2022-09-12T22:41:25.928Z,57.24
2022-09-12T22:43:55.322Z,57.26
2022-09-12T22:46:23.994Z,57.28
2022-09-12T22:48:52.607Z,57.21
2022-09-12T22:51:20.384Z,57.51
2022-09-12T22:53:48.130Z,57.44
2022-09-12T22:56:16.050Z,57.55
2022-09-12T22:58:43.628Z,57.38
2022-09-12T23:47:57.466Z,58.07
2022-09-12T23:50:25.383Z,58.18
2022-09-12T23:52:53.051Z,58.30
2022-09-12T23:55:21.651Z,57.95
2022-09-12T23:57:49.590Z,58.14
